Time;durP1;ratioP1;P1;durP2;ratioP2;P2;SDS_P1;SDS_P2;PMS_P1;PMS_P2;Temp;Humidity;BMP_temperature;BMP_pressure;BME280_temperature;BME280_humidity;BME280_pressure;Samples;Min_cycle;Max_cycle;Signal;HPM_P1;HPM_P2
2021/10/20 00:06:59;;;;;;;1.10;0.53;;;19.00;99.90;;;;;;20347530;29;20257;-69
2021/10/20 00:17:04;;;;;;;0.20;0.20;;;19.00;99.90;;;;;;20347082;29;20234;-69
2021/10/20 00:27:07;;;;;;;0.60;0.43;;;19.00;99.90;;;;;;20350878;29;20273;-69
2021/10/20 00:37:12;;;;;;;0.80;0.60;;;19.10;99.90;;;;;;20354755;29;20223;-69
2021/10/20 00:47:17;;;;;;;0.30;0.20;;;19.30;99.90;;;;;;20343758;29;20551;-68
2021/10/20 00:57:25;;;;;;;0.80;0.60;;;19.30;99.90;;;;;;20342190;29;20240;-68
2021/10/20 01:07:28;;;;;;;0.20;0.20;;;19.50;99.90;;;;;;20343073;29;20232;-68
2021/10/20 01:17:33;;;;;;;0.20;0.17;;;19.90;99.90;;;;;;20341422;29;20248;-68
2021/10/20 01:27:39;;;;;;;0.70;0.40;;;19.90;99.90;;;;;;20342158;29;20213;-68
2021/10/20 01:37:42;;;;;;;1.40;0.40;;;20.10;99.90;;;;;;20340201;29;20230;-70
2021/10/20 01:47:47;;;;;;;0.77;0.70;;;20.20;99.90;;;;;;20338659;29;20285;-70
2021/10/20 01:57:51;;;;;;;1.33;0.80;;;20.00;99.90;;;;;;20322298;29;20218;-69
2021/10/20 02:07:56;;;;;;;1.03;0.50;;;19.80;99.90;;;;;;20340028;29;20313;-68
2021/10/20 02:18:00;;;;;;;0.43;0.43;;;19.60;99.90;;;;;;20336441;29;20286;-69
2021/10/20 02:28:05;;;;;;;0.73;0.30;;;19.40;99.90;;;;;;20338511;29;20202;-68
2021/10/20 02:38:09;;;;;;;0.20;0.07;;;19.30;99.90;;;;;;20336100;29;20230;-67
2021/10/20 02:48:14;;;;;;;0.93;0.63;;;19.10;99.90;;;;;;20335166;29;20230;-68
2021/10/20 02:58:17;;;;;;;0.23;0.20;;;19.10;99.90;;;;;;20334987;29;20733;-70
2021/10/20 03:08:23;;;;;;;0.70;0.63;;;19.10;99.90;;;;;;20335280;29;20321;-69
2021/10/20 03:18:26;;;;;;;0.90;0.50;;;19.50;99.90;;;;;;20334056;29;20318;-69
2021/10/20 03:28:32;;;;;;;0.20;0.10;;;19.80;99.90;;;;;;20338971;29;20580;-69
2021/10/20 03:38:36;;;;;;;0.30;0.10;;;20.00;99.90;;;;;;20364499;29;20254;-70
2021/10/20 03:48:41;;;;;;;0.20;0.10;;;20.00;99.90;;;;;;20348980;29;20209;-70
2021/10/20 03:58:45;;;;;;;0.20;0.20;;;20.10;99.90;;;;;;20348125;29;20548;-69
2021/10/20 04:08:50;;;;;;;0.30;0.30;;;20.10;99.90;;;;;;20357778;23;20582;-68
2021/10/20 04:18:53;;;;;;;0.43;0.43;;;20.30;99.90;;;;;;20346495;29;20755;-67
2021/10/20 04:28:58;;;;;;;1.00;0.30;;;20.30;99.90;;;;;;20344498;29;20205;-68
2021/10/20 04:39:02;;;;;;;0.30;0.23;;;20.40;99.90;;;;;;20343368;29;20343;-69
2021/10/20 04:49:07;;;;;;;0.23;0.23;;;20.40;99.90;;;;;;20343875;29;20212;-67
2021/10/20 04:59:10;;;;;;;0.30;0.30;;;20.40;99.90;;;;;;20341633;29;20238;-70
2021/10/20 05:09:15;;;;;;;0.20;0.10;;;20.50;99.90;;;;;;20342320;29;20277;-68
2021/10/20 05:19:19;;;;;;;0.43;0.23;;;20.50;99.90;;;;;;20341308;29;20759;-68
2021/10/20 05:29:31;;;;;;;3.80;0.93;;;20.50;99.90;;;;;;20334258;29;20327;-69
2021/10/20 05:39:35;;;;;;;0.23;0.20;;;20.60;99.90;;;;;;20336182;29;20241;-69
2021/10/20 05:49:40;;;;;;;0.37;0.33;;;20.60;99.90;;;;;;20335247;29;20216;-67
2021/10/20 05:59:44;;;;;;;0.43;0.17;;;20.70;99.90;;;;;;20333615;29;20237;-68
2021/10/20 06:09:49;;;;;;;0.43;0.30;;;20.70;99.90;;;;;;20331602;29;20584;-68
2021/10/20 06:19:52;;;;;;;0.20;0.10;;;20.70;99.90;;;;;;20333968;29;20763;-68
2021/10/20 06:29:57;;;;;;;0.20;0.20;;;20.80;99.90;;;;;;20333174;29;20195;-68
2021/10/20 06:40:01;;;;;;;0.57;0.57;;;20.80;99.90;;;;;;20335204;29;20226;-68
2021/10/20 06:50:08;;;;;;;0.97;0.63;;;20.80;99.90;;;;;;20333850;29;20199;-69
2021/10/20 07:00:13;;;;;;;9.60;2.13;;;21.00;99.90;;;;;;20331340;29;20321;-69
2021/10/20 07:10:18;;;;;;;1.60;0.77;;;21.00;99.90;;;;;;20309420;29;20558;-69
2021/10/20 07:20:22;;;;;;;0.97;0.67;;;20.90;99.90;;;;;;20348384;29;20218;-68
2021/10/20 07:30:28;;;;;;;1.07;0.60;;;21.10;99.90;;;;;;20280603;29;20506;-67
2021/10/20 07:40:32;;;;;;;0.43;0.38;;;21.00;99.90;;;;;;20268500;29;20237;-67
2021/10/20 07:50:37;;;;;;;0.82;0.50;;;21.30;99.90;;;;;;20268865;29;20701;-67
2021/10/20 08:00:41;;;;;;;0.20;0.10;;;21.30;99.90;;;;;;20346286;29;20786;-67
2021/10/20 08:10:46;;;;;;;2.08;0.30;;;21.20;99.90;;;;;;20343875;29;20234;-68
2021/10/20 08:20:50;;;;;;;0.20;0.10;;;21.50;99.90;;;;;;20342764;29;20257;-68
2021/10/20 08:30:55;;;;;;;1.05;0.35;;;21.80;99.90;;;;;;20344201;29;20198;-67
2021/10/20 08:40:59;;;;;;;0.20;0.20;;;21.90;99.90;;;;;;20342909;29;20301;-68
2021/10/20 08:51:05;;;;;;;0.20;0.08;;;22.10;99.90;;;;;;20337494;29;20278;-67
2021/10/20 09:01:09;;;;;;;0.20;0.10;;;22.10;99.90;;;;;;20316213;29;20249;-69
2021/10/20 09:21:52;;;;;;;0.98;0.98;;;22.70;99.90;;;;;;20337044;29;20321;-70
2021/10/20 09:31:57;;;;;;;0.20;0.10;;;22.70;99.90;;;;;;20336685;29;20198;-68
2021/10/20 09:42:08;;;;;;;0.20;0.10;;;22.50;99.90;;;;;;20332732;29;20322;-68
2021/10/20 09:52:13;;;;;;;0.20;0.00;;;22.10;99.90;;;;;;20271012;29;20277;-67
2021/10/20 10:02:16;;;;;;;0.20;0.00;;;22.70;99.90;;;;;;20334224;29;20233;-67
2021/10/20 10:12:27;;;;;;;0.20;0.00;;;22.70;99.90;;;;;;20336689;29;20210;-68
2021/10/20 10:22:30;;;;;;;0.57;0.57;;;22.10;99.90;;;;;;20335584;29;20237;-70
2021/10/20 10:32:37;;;;;;;0.43;0.40;;;21.70;99.90;;;;;;20335257;29;20213;-67
2021/10/20 10:42:45;;;;;;;0.35;0.22;;;21.90;99.90;;;;;;20333474;29;20317;-67
2021/10/20 10:52:54;;;;;;;0.30;0.30;;;22.00;99.90;;;;;;20333323;29;20198;-67
2021/10/20 11:02:59;;;;;;;0.20;0.10;;;21.90;99.90;;;;;;20333147;29;20238;-67
2021/10/20 11:13:05;;;;;;;1.10;0.20;;;22.00;99.90;;;;;;20335110;29;20561;-66
2021/10/20 11:23:12;;;;;;;0.40;0.30;;;22.30;99.90;;;;;;20333808;29;20308;-68
2021/10/20 11:33:18;;;;;;;0.20;0.10;;;22.20;99.90;;;;;;20330824;29;20286;-67
2021/10/20 11:43:25;;;;;;;0.32;0.25;;;22.30;99.90;;;;;;20333655;29;20244;-68
2021/10/20 11:53:31;;;;;;;0.20;0.10;;;22.30;99.90;;;;;;20340320;29;20273;-67
2021/10/20 12:03:35;;;;;;;0.20;0.20;;;22.50;99.90;;;;;;20347145;29;20238;-70
2021/10/20 12:13:40;;;;;;;0.40;0.40;;;22.70;99.90;;;;;;20345113;29;20202;-68
2021/10/20 12:23:45;;;;;;;0.30;0.10;;;23.20;99.90;;;;;;20342638;29;20313;-68
2021/10/20 12:33:53;;;;;;;0.20;0.00;;;22.90;99.90;;;;;;20337386;29;20224;-68
2021/10/20 12:44:01;;;;;;;0.20;0.10;;;22.40;99.90;;;;;;20337230;29;20281;-68
2021/10/20 12:54:08;;;;;;;0.22;0.08;;;22.60;99.90;;;;;;20341589;29;20214;-65
2021/10/20 13:04:14;;;;;;;0.77;0.22;;;22.70;99.90;;;;;;20336648;29;20704;-67
2021/10/20 13:14:19;;;;;;;0.20;0.10;;;22.50;99.90;;;;;;20336652;29;20225;-66
2021/10/20 13:24:22;;;;;;;0.22;0.22;;;22.10;99.90;;;;;;20336372;29;20225;-67
2021/10/20 13:34:27;;;;;;;0.55;0.55;;;22.00;99.90;;;;;;20336853;29;20281;-67
2021/10/20 13:44:31;;;;;;;0.20;0.17;;;22.60;99.90;;;;;;20335402;29;20226;-67
2021/10/20 13:54:36;;;;;;;3.30;0.30;;;22.30;99.90;;;;;;20332971;29;20202;-66
2021/10/20 14:04:40;;;;;;;0.65;0.57;;;23.30;99.90;;;;;;20282840;29;21209;-69
2021/10/20 14:14:46;;;;;;;0.20;0.17;;;23.10;99.90;;;;;;20305383;29;20314;-68
2021/10/20 14:24:49;;;;;;;0.20;0.00;;;23.30;99.90;;;;;;20330915;29;20329;-67
2021/10/20 14:34:54;;;;;;;0.40;0.25;;;22.80;99.90;;;;;;20332481;29;20762;-67
2021/10/20 14:44:59;;;;;;;0.20;0.10;;;24.70;99.90;;;;;;20328227;29;20316;-68
2021/10/20 14:55:05;;;;;;;0.20;0.10;;;26.40;99.90;;;;;;20328511;29;20269;-68
2021/10/20 15:05:10;;;;;;;0.20;0.10;;;25.80;99.90;;;;;;20275750;29;20489;-66
2021/10/20 15:15:21;;;;;;;0.20;0.00;;;24.80;99.90;;;;;;20250796;29;20221;-68
2021/10/20 15:25:25;;;;;;;0.20;0.10;;;23.20;99.90;;;;;;20256094;29;20229;-66
2021/10/20 15:35:34;;;;;;;0.30;0.10;;;22.60;99.90;;;;;;20344129;29;20194;-69
2021/10/20 15:45:38;;;;;;;0.60;0.60;;;22.40;99.90;;;;;;20346439;29;20225;-67
2021/10/20 15:55:43;;;;;;;0.20;0.00;;;22.20;99.90;;;;;;20344811;29;20289;-68
2021/10/20 16:05:47;;;;;;;0.20;0.03;;;21.80;99.90;;;;;;20345345;29;20711;-68
2021/10/20 16:15:53;;;;;;;0.20;0.10;;;21.50;99.90;;;;;;20345432;29;20198;-67
2021/10/20 16:25:57;;;;;;;0.20;0.00;;;21.40;99.90;;;;;;20344123;29;20650;-67
2021/10/20 16:36:02;;;;;;;1.17;0.83;;;21.30;99.90;;;;;;20340929;29;20202;-67
2021/10/20 16:46:05;;;;;;;0.20;0.10;;;21.30;99.90;;;;;;20342269;29;20527;-66
2021/10/20 16:56:10;;;;;;;0.20;0.10;;;21.20;99.90;;;;;;20340819;29;20202;-67
2021/10/20 17:06:14;;;;;;;0.20;0.10;;;21.00;99.90;;;;;;20337625;29;20594;-67
2021/10/20 17:16:20;;;;;;;0.30;0.20;;;20.80;99.90;;;;;;20338864;29;20338;-68
2021/10/20 17:26:24;;;;;;;0.20;0.10;;;20.80;99.90;;;;;;20336278;29;20285;-69
2021/10/20 17:36:30;;;;;;;0.20;0.10;;;20.70;99.90;;;;;;20294701;29;20199;-68
2021/10/20 17:46:34;;;;;;;0.20;0.20;;;20.70;99.90;;;;;;20319755;29;20226;-69
2021/10/20 17:56:39;;;;;;;0.20;0.10;;;20.70;99.90;;;;;;20333934;29;20661;-68
2021/10/20 18:06:43;;;;;;;0.20;0.00;;;20.70;99.90;;;;;;20334450;29;20326;-68
2021/10/20 18:16:48;;;;;;;0.20;0.10;;;20.60;99.90;;;;;;20332954;29;20202;-68
2021/10/20 18:26:52;;;;;;;0.20;0.10;;;20.50;99.90;;;;;;20333425;29;20222;-65
2021/10/20 18:36:57;;;;;;;3.03;0.50;;;20.40;99.90;;;;;;20328181;29;20206;-68
2021/10/20 18:47:01;;;;;;;0.20;0.10;;;20.30;99.90;;;;;;20331657;29;20341;-67
2021/10/20 18:57:06;;;;;;;0.50;0.50;;;20.30;99.90;;;;;;20281836;29;20206;-68
2021/10/20 19:07:10;;;;;;;0.20;0.10;;;20.30;99.90;;;;;;20276845;29;20238;-67
2021/10/20 19:17:19;;;;;;;0.20;0.10;;;20.20;99.90;;;;;;20294132;29;20208;-65
2021/10/20 19:27:24;;;;;;;0.20;0.10;;;19.90;99.90;;;;;;20356128;29;20646;-66
2021/10/20 19:37:29;;;;;;;0.20;0.10;;;19.60;99.90;;;;;;20350669;29;20705;-67
2021/10/20 19:47:33;;;;;;;0.20;0.03;;;19.30;99.90;;;;;;20322501;29;20572;-67
2021/10/20 19:57:38;;;;;;;0.20;0.10;;;19.10;99.90;;;;;;20333966;29;20664;-66
2021/10/20 20:07:42;;;;;;;0.50;0.40;;;18.80;99.90;;;;;;20355416;29;20229;-64
2021/10/20 20:17:47;;;;;;;0.20;0.10;;;18.80;99.90;;;;;;20343033;29;20222;-65
2021/10/20 20:27:51;;;;;;;0.20;0.03;;;18.70;99.90;;;;;;20344451;29;20222;-66
2021/10/20 20:37:56;;;;;;;0.20;0.10;;;18.80;99.90;;;;;;20340444;29;20499;-67
2021/10/20 20:47:59;;;;;;;0.87;0.47;;;18.60;99.90;;;;;;20344230;29;20317;-67
2021/10/20 20:58:05;;;;;;;0.53;0.30;;;18.40;99.90;;;;;;20343187;29;20878;-67
2021/10/20 21:08:08;;;;;;;0.20;0.00;;;18.50;99.90;;;;;;20342669;29;20240;-68
2021/10/20 21:18:15;;;;;;;0.20;0.20;;;18.50;99.90;;;;;;20340480;29;20233;-69
2021/10/20 21:28:18;;;;;;;0.80;0.20;;;18.60;99.90;;;;;;20341650;29;20597;-69
2021/10/20 21:38:23;;;;;;;0.20;0.10;;;18.80;99.90;;;;;;20335849;29;20679;-69
2021/10/20 21:48:27;;;;;;;0.30;0.30;;;18.90;99.90;;;;;;20339114;29;20281;-69
2021/10/20 21:58:32;;;;;;;0.20;0.00;;;18.60;99.90;;;;;;20339886;29;20209;-69
2021/10/20 22:08:35;;;;;;;0.30;0.10;;;18.40;99.90;;;;;;20338393;29;20237;-68
2021/10/20 22:18:40;;;;;;;0.23;0.20;;;18.30;99.90;;;;;;20337810;29;20558;-67
2021/10/20 22:28:44;;;;;;;0.20;0.20;;;18.40;99.90;;;;;;20337920;29;20218;-69
2021/10/20 22:38:50;;;;;;;0.27;0.27;;;18.70;99.90;;;;;;20331464;29;20202;-69
2021/10/20 22:48:53;;;;;;;0.20;0.10;;;18.80;99.90;;;;;;20319424;29;20222;-69
2021/10/20 22:58:59;;;;;;;0.43;0.40;;;18.90;99.90;;;;;;20335129;29;20209;-69
2021/10/20 23:09:03;;;;;;;0.20;0.10;;;18.90;99.90;;;;;;20335840;29;20280;-68
2021/10/20 23:19:08;;;;;;;1.07;0.40;;;18.90;99.90;;;;;;20335414;29;20281;-68
2021/10/20 23:29:12;;;;;;;0.90;0.53;;;18.80;99.90;;;;;;20334425;29;20646;-70
2021/10/20 23:39:17;;;;;;;0.47;0.47;;;18.80;99.90;;;;;;20271877;29;20607;-68
2021/10/20 23:49:21;;;;;;;17.60;0.63;;;18.80;99.90;;;;;;20265502;29;20644;-68
2021/10/20 23:59:26;;;;;;;0.20;0.10;;;18.70;99.90;;;;;;20325228;29;20208;-68
